Time;durP1;ratioP1;P1;durP2;ratioP2;P2;SDS_P1;SDS_P2;PMS_P1;PMS_P2;Temp;Humidity;BMP_temperature;BMP_pressure;BME280_temperature;BME280_humidity;BME280_pressure;Samples;Min_cycle;Max_cycle;Signal;HPM_P1;HPM_P2
2022/05/17 00:20:46;;;;;;;40.87;22.77;;;;;;;;;;6353869;22;20427;-93
2022/05/17 00:23:54;;;;;;;40.57;24.10;;;;;;;;;;6358553;22;20389;-92
2022/05/17 00:26:58;;;;;;;55.67;24.70;;;;;;;;;;6361090;22;20427;-93
2022/05/17 00:30:03;;;;;;;113.43;23.63;;;;;;;;;;6365502;22;20366;-92
2022/05/17 00:35:45;;;;;;;50.00;21.90;;;;;;;;;;6275989;22;20549;-93
2022/05/17 00:38:55;;;;;;;68.70;21.57;;;;;;;;;;6361035;22;20371;-93
2022/05/17 00:41:58;;;;;;;84.17;24.27;;;;;;;;;;6359417;22;20409;-92
2022/05/17 00:45:04;;;;;;;61.90;23.90;;;;;;;;;;6356911;22;20393;-93
2022/05/17 00:48:10;;;;;;;38.93;23.87;;;;;;;;;;6359415;22;20497;-94
2022/05/17 00:51:16;;;;;;;64.20;24.27;;;;;;;;;;6357577;22;20657;-92
2022/05/17 00:54:24;;;;;;;38.20;21.77;;;;;;;;;;6354339;22;20904;-94
2022/05/17 00:57:28;;;;;;;26.73;24.00;;;;;;;;;;6351066;22;20375;-93
2022/05/17 01:00:33;;;;;;;33.00;22.53;;;;;;;;;;6330204;22;20442;-94
2022/05/17 01:03:42;;;;;;;39.17;23.83;;;;;;;;;;6353332;22;20367;-93
2022/05/17 01:06:45;;;;;;;25.87;22.87;;;;;;;;;;6354984;22;20537;-92
2022/05/17 01:09:51;;;;;;;41.13;23.57;;;;;;;;;;6326026;22;20379;-92
2022/05/17 01:16:02;;;;;;;28.43;23.77;;;;;;;;;;6326755;22;20379;-94
2022/05/17 01:19:19;;;;;;;30.60;22.63;;;;;;;;;;6326210;22;20388;-92
2022/05/17 01:22:10;;;;;;;35.03;22.17;;;;;;;;;;6327196;22;20391;-93
2022/05/17 01:25:14;;;;;;;27.03;23.20;;;;;;;;;;6328568;22;20380;-93
2022/05/17 01:28:25;;;;;;;31.57;19.03;;;;;;;;;;6330243;22;20398;-92
2022/05/17 01:31:30;;;;;;;34.17;20.10;;;;;;;;;;6327638;22;20380;-94
2022/05/17 01:34:35;;;;;;;28.43;21.27;;;;;;;;;;6329369;22;20375;-91
2022/05/17 01:42:57;;;;;;;54.53;19.80;;;;;;;;;;6264978;22;20468;-93
2022/05/17 01:46:05;;;;;;;61.37;18.20;;;;;;;;;;6300825;22;20419;-93
2022/05/17 01:49:11;;;;;;;62.30;18.70;;;;;;;;;;6299574;22;20376;-93
2022/05/17 01:51:55;;;;;;;58.27;19.67;;;;;;;;;;6292440;22;20419;-94
2022/05/17 01:54:23;;;;;;;65.10;19.20;;;;;;;;;;6263137;22;20376;-94
2022/05/17 01:56:49;;;;;;;56.90;19.27;;;;;;;;;;6138167;22;20384;-94
2022/05/17 01:59:16;;;;;;;111.47;22.17;;;;;;;;;;6266677;22;20393;-94
2022/05/17 02:01:42;;;;;;;61.93;17.23;;;;;;;;;;6263128;22;20399;-94
2022/05/17 02:04:08;;;;;;;65.53;18.10;;;;;;;;;;6288129;22;20381;-95
2022/05/17 02:06:34;;;;;;;37.00;16.87;;;;;;;;;;6257080;22;20586;-95
2022/05/17 02:09:00;;;;;;;56.20;17.10;;;;;;;;;;6258978;22;20853;-94
2022/05/17 02:11:26;;;;;;;48.40;17.33;;;;;;;;;;6257658;22;20392;-95
2022/05/17 02:13:53;;;;;;;24.03;16.97;;;;;;;;;;6257596;22;20719;-95
2022/05/17 02:16:19;;;;;;;26.07;17.40;;;;;;;;;;6255184;22;20498;-94
2022/05/17 02:18:45;;;;;;;44.87;18.30;;;;;;;;;;6265450;22;20420;-95
2022/05/17 02:21:11;;;;;;;26.03;17.30;;;;;;;;;;6268496;22;20381;-94
2022/05/17 02:23:37;;;;;;;23.23;16.60;;;;;;;;;;6267329;22;20462;-94
2022/05/17 02:26:03;;;;;;;21.43;17.93;;;;;;;;;;6267166;22;20475;-94
2022/05/17 02:28:29;;;;;;;18.53;16.83;;;;;;;;;;6294278;22;20373;-94
2022/05/17 02:30:55;;;;;;;18.23;15.13;;;;;;;;;;6270000;22;20377;-94
2022/05/17 02:33:21;;;;;;;23.80;14.20;;;;;;;;;;6272558;22;20565;-93
2022/05/17 02:35:47;;;;;;;33.33;17.47;;;;;;;;;;6271538;22;20396;-94
2022/05/17 02:38:13;;;;;;;17.40;16.00;;;;;;;;;;6283769;22;20360;-93
2022/05/17 02:40:40;;;;;;;59.13;16.10;;;;;;;;;;6260173;22;20479;-93
2022/05/17 02:43:07;;;;;;;37.63;16.63;;;;;;;;;;6263590;22;20400;-94
2022/05/17 02:45:33;;;;;;;25.97;17.00;;;;;;;;;;6267060;22;20406;-96
2022/05/17 02:47:59;;;;;;;26.87;17.50;;;;;;;;;;6266518;22;20432;-93
2022/05/17 02:50:25;;;;;;;20.40;16.73;;;;;;;;;;6265850;22;20441;-94
2022/05/17 02:52:51;;;;;;;31.97;17.07;;;;;;;;;;6268102;22;20403;-94
2022/05/17 02:55:17;;;;;;;38.37;16.47;;;;;;;;;;6262296;22;20488;-94
2022/05/17 02:57:43;;;;;;;35.37;17.10;;;;;;;;;;6262792;22;20479;-93
2022/05/17 03:00:12;;;;;;;28.80;17.20;;;;;;;;;;6262083;22;20380;-93
2022/05/17 03:02:39;;;;;;;27.87;15.57;;;;;;;;;;6266617;22;20396;-95
2022/05/17 03:05:13;;;;;;;25.60;15.30;;;;;;;;;;6266932;22;20396;-94
2022/05/17 03:07:39;;;;;;;32.10;16.10;;;;;;;;;;6268030;22;20435;-96
2022/05/17 03:10:05;;;;;;;22.47;15.87;;;;;;;;;;6264575;22;20492;-92
2022/05/17 03:12:31;;;;;;;18.37;14.60;;;;;;;;;;6263708;22;20383;-94
2022/05/17 03:14:59;;;;;;;26.77;15.97;;;;;;;;;;6262413;22;20404;-93
2022/05/17 03:17:25;;;;;;;34.63;17.00;;;;;;;;;;6266189;22;20392;-94
2022/05/17 03:19:53;;;;;;;72.50;17.00;;;;;;;;;;6271157;22;20408;-93
2022/05/17 03:22:20;;;;;;;68.33;16.60;;;;;;;;;;6268267;22;20422;-95
2022/05/17 03:24:48;;;;;;;56.53;16.37;;;;;;;;;;6273237;22;20392;-93
2022/05/17 03:27:17;;;;;;;30.67;14.53;;;;;;;;;;6272367;22;20435;-94
2022/05/17 03:29:43;;;;;;;33.83;15.60;;;;;;;;;;6245567;22;20397;-94
2022/05/17 03:32:10;;;;;;;18.83;14.67;;;;;;;;;;6244199;22;20436;-94
2022/05/17 03:34:36;;;;;;;53.40;13.50;;;;;;;;;;6269820;22;20384;-93
2022/05/17 03:37:02;;;;;;;25.27;14.37;;;;;;;;;;6264222;22;20396;-93
2022/05/17 03:39:30;;;;;;;39.33;13.77;;;;;;;;;;6270832;22;20419;-95
2022/05/17 03:41:57;;;;;;;46.33;14.63;;;;;;;;;;6239563;23;20436;-94
2022/05/17 03:44:23;;;;;;;45.17;14.10;;;;;;;;;;6244086;23;20401;-92
2022/05/17 03:46:49;;;;;;;29.97;13.77;;;;;;;;;;6243133;23;20983;-94
2022/05/17 03:49:15;;;;;;;19.90;12.63;;;;;;;;;;6241200;23;20874;-94
2022/05/17 03:51:41;;;;;;;30.90;12.80;;;;;;;;;;6241685;23;20480;-91
2022/05/17 03:54:07;;;;;;;25.90;14.40;;;;;;;;;;6142497;23;20383;-94
2022/05/17 03:56:34;;;;;;;27.80;13.43;;;;;;;;;;6249785;22;20413;-94
2022/05/17 04:01:36;;;;;;;23.67;11.47;;;;;;;;;;6233118;22;20539;-93
2022/05/17 04:06:43;;;;;;;22.67;13.40;;;;;;;;;;6143377;23;20452;-95
2022/05/17 04:09:16;;;;;;;14.80;13.10;;;;;;;;;;6144799;22;20409;-94
2022/05/17 04:11:42;;;;;;;23.03;13.10;;;;;;;;;;6099304;23;20406;-94
2022/05/17 04:14:11;;;;;;;13.37;12.37;;;;;;;;;;6116130;23;20385;-93
2022/05/17 04:16:38;;;;;;;15.63;11.90;;;;;;;;;;6112425;23;20386;-95
2022/05/17 04:19:05;;;;;;;26.13;12.07;;;;;;;;;;6117462;23;20400;-94
2022/05/17 04:21:34;;;;;;;24.50;11.43;;;;;;;;;;6115259;23;20404;-93
2022/05/17 04:24:03;;;;;;;18.07;11.70;;;;;;;;;;6115513;23;20383;-94
2022/05/17 04:26:29;;;;;;;12.93;11.63;;;;;;;;;;6112267;23;20435;-94
2022/05/17 04:28:55;;;;;;;15.17;13.57;;;;;;;;;;6117899;23;20405;-94
2022/05/17 04:31:21;;;;;;;15.30;13.87;;;;;;;;;;6118427;23;20658;-94
2022/05/17 04:33:47;;;;;;;16.47;11.90;;;;;;;;;;6120190;23;20412;-92
2022/05/17 04:38:49;;;;;;;12.83;11.53;;;;;;;;;;6190013;22;20438;-93
2022/05/17 04:41:35;;;;;;;27.20;11.53;;;;;;;;;;6175703;22;20387;-92
2022/05/17 04:44:41;;;;;;;13.37;12.17;;;;;;;;;;6203712;22;20383;-91
2022/05/17 04:47:48;;;;;;;12.00;11.10;;;;;;;;;;6206258;22;20469;-92
2022/05/17 04:55:55;;;;;;;13.33;12.23;;;;;;;;;;6354771;22;20545;-94
2022/05/17 04:58:22;;;;;;;15.93;13.27;;;;;;;;;;6334876;22;20391;-93
2022/05/17 05:01:12;;;;;;;13.80;12.70;;;;;;;;;;6315140;22;20436;-91
2022/05/17 05:03:38;;;;;;;16.27;14.77;;;;;;;;;;6169517;23;20395;-91
2022/05/17 05:06:26;;;;;;;12.47;11.50;;;;;;;;;;6168861;22;20427;-94
2022/05/17 05:09:37;;;;;;;14.10;12.90;;;;;;;;;;6195794;22;20483;-94
2022/05/17 05:12:43;;;;;;;13.60;12.40;;;;;;;;;;6206638;22;20387;-92
2022/05/17 05:15:51;;;;;;;14.53;12.53;;;;;;;;;;6196598;22;20392;-94
2022/05/17 05:18:55;;;;;;;13.40;12.27;;;;;;;;;;6203073;22;20383;-93
2022/05/17 05:22:03;;;;;;;14.20;13.10;;;;;;;;;;6194481;22;20423;-92
2022/05/17 05:25:07;;;;;;;12.40;11.50;;;;;;;;;;6189259;22;20383;-95
2022/05/17 05:28:15;;;;;;;11.90;11.00;;;;;;;;;;6194208;22;21037;-93
2022/05/17 05:31:20;;;;;;;12.77;11.67;;;;;;;;;;6206102;22;20433;-91
2022/05/17 05:34:33;;;;;;;12.73;11.37;;;;;;;;;;6259352;22;20442;-92
2022/05/17 05:37:40;;;;;;;12.47;11.47;;;;;;;;;;6357019;22;20425;-94
2022/05/17 05:43:35;;;;;;;11.60;10.70;;;;;;;;;;6198526;22;20511;-92
2022/05/17 05:46:41;;;;;;;12.60;11.40;;;;;;;;;;6196449;23;20427;-93
2022/05/17 05:49:47;;;;;;;12.30;11.10;;;;;;;;;;6198498;22;20419;-90
2022/05/17 05:52:53;;;;;;;12.00;11.30;;;;;;;;;;6173963;23;20715;-91
2022/05/17 05:56:01;;;;;;;12.50;11.50;;;;;;;;;;6192511;22;20810;-91
2022/05/17 05:59:07;;;;;;;9.87;9.17;;;;;;;;;;6197189;23;20409;-95
2022/05/17 06:04:52;;;;;;;11.90;11.00;;;;;;;;;;6356529;22;20442;-93
2022/05/17 06:08:01;;;;;;;13.97;12.83;;;;;;;;;;6351945;22;20576;-95
2022/05/17 06:11:09;;;;;;;12.83;11.20;;;;;;;;;;6351099;22;20428;-95
2022/05/17 06:14:13;;;;;;;13.10;12.03;;;;;;;;;;6347692;22;20409;-95
2022/05/17 06:17:23;;;;;;;18.57;17.07;;;;;;;;;;6352220;22;20870;-94
2022/05/17 06:20:24;;;;;;;16.67;15.00;;;;;;;;;;6358020;22;20414;-94
2022/05/17 06:23:31;;;;;;;15.07;13.87;;;;;;;;;;6241241;22;20485;-92
2022/05/17 06:26:38;;;;;;;24.60;22.03;;;;;;;;;;6197308;22;20431;-93
2022/05/17 06:32:22;;;;;;;18.50;16.73;;;;;;;;;;6284971;22;20448;-94
2022/05/17 06:35:28;;;;;;;20.67;17.63;;;;;;;;;;6338163;22;20386;-92
2022/05/17 06:41:27;;;;;;;16.20;14.63;;;;;;;;;;6266902;22;20506;-92
2022/05/17 06:44:32;;;;;;;16.80;15.13;;;;;;;;;;6132181;22;20445;-93
2022/05/17 06:55:43;;;;;;;;;;;;;;;;;;;;;
2022/05/17 07:02:01;;;;;;;16.63;14.97;;;;;;;;;;6114170;23;20390;-94
2022/05/17 07:05:06;;;;;;;17.50;15.80;;;;;;;;;;6147009;23;20469;-94
2022/05/17 07:08:22;;;;;;;17.40;15.80;;;;;;;;;;6105557;23;20430;-95
2022/05/17 07:14:37;;;;;;;16.20;14.60;;;;;;;;;;6111238;23;20481;-94
2022/05/17 07:17:42;;;;;;;18.10;14.63;;;;;;;;;;6121421;22;20446;-92
2022/05/17 07:20:47;;;;;;;15.63;14.17;;;;;;;;;;6201838;23;20383;-94
2022/05/17 07:26:47;;;;;;;15.83;14.40;;;;;;;;;;6206633;22;20457;-93
2022/05/17 07:35:41;;;;;;;16.70;15.07;;;;;;;;;;6273422;22;20438;-93
2022/05/17 07:38:57;;;;;;;16.40;14.80;;;;;;;;;;6324587;22;20403;-93
2022/05/17 07:44:57;;;;;;;;;;;;;;;;;;;;;
2022/05/17 07:48:02;;;;;;;15.10;12.97;;;;;;;;;;6133504;23;20433;-90
2022/05/17 07:51:15;;;;;;;13.00;11.70;;;;;;;;;;6150697;23;20380;-91
2022/05/17 07:56:45;;;;;;;15.40;13.90;;;;;;;;;;6222883;22;20458;-88
2022/05/17 07:59:11;;;;;;;14.30;12.87;;;;;;;;;;6144559;23;20483;-93
2022/05/17 08:01:40;;;;;;;13.37;12.20;;;;;;;;;;6146429;23;20389;-88
2022/05/17 08:04:09;;;;;;;16.27;13.10;;;;;;;;;;6145592;23;20392;-90
2022/05/17 08:06:42;;;;;;;14.73;13.13;;;;;;;;;;6169441;23;20467;-92
2022/05/17 08:09:26;;;;;;;14.13;12.97;;;;;;;;;;6120390;23;20495;-93
2022/05/17 08:11:53;;;;;;;14.70;11.73;;;;;;;;;;6124930;23;20400;-90
2022/05/17 08:14:19;;;;;;;13.10;11.73;;;;;;;;;;6142200;23;20389;-92
2022/05/17 08:16:54;;;;;;;12.63;11.40;;;;;;;;;;6142765;23;20400;-93
2022/05/17 08:20:07;;;;;;;;;;;;;;;;;;;;;
2022/05/17 08:22:30;;;;;;;12.90;11.90;;;;;;;;;;6164525;23;20406;-91
2022/05/17 08:27:54;;;;;;;15.43;14.03;;;;;;;;;;6360259;22;20483;-92
2022/05/17 08:30:32;;;;;;;13.50;12.27;;;;;;;;;;6332743;22;20863;-92
2022/05/17 08:33:14;;;;;;;15.33;13.93;;;;;;;;;;6334024;22;20382;-90
2022/05/17 08:36:02;;;;;;;11.50;10.40;;;;;;;;;;6150030;22;20448;-90
2022/05/17 08:38:38;;;;;;;12.10;10.70;;;;;;;;;;6169284;23;20377;-93
2022/05/17 08:41:31;;;;;;;12.23;10.90;;;;;;;;;;6275782;22;20392;-90
2022/05/17 08:44:02;;;;;;;12.67;11.37;;;;;;;;;;6171430;23;20396;-92
2022/05/17 08:46:47;;;;;;;11.67;10.67;;;;;;;;;;6141907;23;20440;-90
2022/05/17 08:52:43;;;;;;;13.33;10.80;;;;;;;;;;6203955;23;20387;-91
2022/05/17 08:55:10;;;;;;;13.40;9.57;;;;;;;;;;6169029;23;20428;-90
2022/05/17 08:57:41;;;;;;;10.83;9.73;;;;;;;;;;6142955;23;20373;-90
2022/05/17 09:00:15;;;;;;;11.43;10.50;;;;;;;;;;6142430;23;20454;-91
2022/05/17 09:03:05;;;;;;;16.77;10.00;;;;;;;;;;6143430;23;20369;-89
2022/05/17 09:05:34;;;;;;;10.50;9.73;;;;;;;;;;6206267;22;20431;-90
2022/05/17 09:08:11;;;;;;;10.60;9.70;;;;;;;;;;6326536;22;20415;-93
2022/05/17 09:10:50;;;;;;;10.03;9.13;;;;;;;;;;6321844;22;20396;-92
2022/05/17 09:18:33;;;;;;;10.83;9.73;;;;;;;;;;6352071;22;20532;-90
2022/05/17 09:20:59;;;;;;;10.90;9.90;;;;;;;;;;6192983;22;20543;-89
2022/05/17 09:23:28;;;;;;;12.20;11.00;;;;;;;;;;6152460;22;20454;-91
2022/05/17 09:26:27;;;;;;;13.73;9.83;;;;;;;;;;6171594;23;20372;-91
2022/05/17 09:29:01;;;;;;;10.40;9.37;;;;;;;;;;6173741;22;20399;-90
2022/05/17 09:39:28;;;;;;;12.50;8.63;;;;;;;;;;6347342;22;20445;-89
2022/05/17 09:45:03;;;;;;;10.10;7.87;;;;;;;;;;6194574;22;20442;-89
2022/05/17 09:47:37;;;;;;;10.33;6.43;;;;;;;;;;6315007;22;20429;-87
2022/05/17 09:53:10;;;;;;;;;;;;;;;;;;;;;
2022/05/17 09:55:56;;;;;;;6.37;5.73;;;;;;;;;;6350176;22;20395;-91
2022/05/17 09:58:33;;;;;;;7.30;6.70;;;;;;;;;;6353425;22;20534;-91
2022/05/17 10:01:09;;;;;;;;;;;;;;;;;;;;;
2022/05/17 10:14:44;;;;;;;8.97;7.97;;;;;;;;;;6215987;22;21592;-89
2022/05/17 10:17:35;;;;;;;7.73;6.90;;;;;;;;;;6095489;22;20458;-89
2022/05/17 10:20:32;;;;;;;8.10;5.27;;;;;;;;;;6139813;23;20447;-89
2022/05/17 10:23:10;;;;;;;6.93;5.30;;;;;;;;;;6082527;23;20406;-89
2022/05/17 10:25:55;;;;;;;9.53;5.87;;;;;;;;;;6091003;22;20448;-91
2022/05/17 10:37:00;;;;;;;5.40;5.00;;;;;;;;;;6339916;22;20520;-87
2022/05/17 10:42:28;;;;;;;5.20;3.50;;;;;;;;;;6202229;22;20447;-89
2022/05/17 10:44:59;;;;;;;3.53;3.20;;;;;;;;;;6173278;22;20414;-88
2022/05/17 10:54:07;;;;;;;3.00;2.90;;;;;;;;;;6233487;23;20402;-87
2022/05/17 11:00:06;;;;;;;3.50;2.97;;;;;;;;;;6202285;23;20422;-91
2022/05/17 11:03:01;;;;;;;2.97;2.77;;;;;;;;;;6195918;22;20387;-88
2022/05/17 11:05:46;;;;;;;4.10;3.90;;;;;;;;;;6197195;23;20386;-89
2022/05/17 11:11:55;;;;;;;3.60;3.40;;;;;;;;;;6331286;22;20465;-90
2022/05/17 11:15:08;;;;;;;4.33;3.97;;;;;;;;;;6348458;22;20428;-90
2022/05/17 11:20:54;;;;;;;6.03;4.37;;;;;;;;;;6220695;22;20461;-90
2022/05/17 11:29:43;;;;;;;4.40;3.10;;;;;;;;;;6191589;22;20445;-89
2022/05/17 11:32:48;;;;;;;3.27;3.17;;;;;;;;;;6192235;23;20430;-87
2022/05/17 11:35:57;;;;;;;3.23;3.03;;;;;;;;;;6192491;23;20455;-87
2022/05/17 11:39:03;;;;;;;6.57;4.20;;;;;;;;;;6195541;23;20379;-89
2022/05/17 11:42:09;;;;;;;9.10;4.73;;;;;;;;;;6197478;23;20423;-88
2022/05/17 11:45:15;;;;;;;5.73;3.97;;;;;;;;;;6199501;23;20391;-90
2022/05/17 11:48:30;;;;;;;4.83;4.10;;;;;;;;;;6196066;23;20435;-87
2022/05/17 11:51:36;;;;;;;8.13;4.10;;;;;;;;;;6198515;23;20388;-87
2022/05/17 11:54:45;;;;;;;5.47;4.70;;;;;;;;;;6196679;22;20352;-91
2022/05/17 11:57:33;;;;;;;4.07;3.80;;;;;;;;;;6197520;23;20474;-90
2022/05/17 12:00:28;;;;;;;5.77;5.30;;;;;;;;;;6199876;22;20399;-89
2022/05/17 12:05:53;;;;;;;5.60;5.10;;;;;;;;;;6252056;22;20462;-88
2022/05/17 12:08:59;;;;;;;11.50;3.70;;;;;;;;;;6201962;23;20426;-87
2022/05/17 12:12:11;;;;;;;6.00;4.00;;;;;;;;;;6198789;23;20432;-85
2022/05/17 12:15:24;;;;;;;5.97;4.30;;;;;;;;;;6201666;23;20391;-89
2022/05/17 12:18:30;;;;;;;5.37;4.03;;;;;;;;;;6198717;23;20428;-88
2022/05/17 12:21:40;;;;;;;4.10;3.90;;;;;;;;;;6191993;23;20486;-90
2022/05/17 12:24:40;;;;;;;8.33;3.97;;;;;;;;;;6182553;23;20478;-91
2022/05/17 12:27:26;;;;;;;4.60;3.40;;;;;;;;;;6191751;22;20430;-88
2022/05/17 12:30:53;;;;;;;4.80;4.30;;;;;;;;;;6193254;23;20566;-93
2022/05/17 12:34:06;;;;;;;8.00;7.00;;;;;;;;;;6198582;23;20475;-90
2022/05/17 12:37:13;;;;;;;3.30;3.20;;;;;;;;;;6198765;23;20375;-91
2022/05/17 12:43:20;;;;;;;3.07;2.87;;;;;;;;;;6200011;23;20402;-91
2022/05/17 12:46:50;;;;;;;3.90;3.20;;;;;;;;;;6200099;22;20387;-91
2022/05/17 12:49:45;;;;;;;4.13;2.90;;;;;;;;;;6193659;23;20379;-93
2022/05/17 12:52:53;;;;;;;3.60;3.30;;;;;;;;;;6196077;23;20379;-91
2022/05/17 12:55:59;;;;;;;8.60;2.60;;;;;;;;;;6193906;23;20387;-89
2022/05/17 12:59:09;;;;;;;3.40;2.63;;;;;;;;;;6197261;22;20445;-91
2022/05/17 13:02:13;;;;;;;3.27;3.10;;;;;;;;;;6190354;23;20470;-91
2022/05/17 13:07:57;;;;;;;2.90;2.77;;;;;;;;;;6159029;22;20454;-91
2022/05/17 13:11:15;;;;;;;;;;;;;;;;;;;;;
2022/05/17 13:14:16;;;;;;;5.50;3.23;;;;;;;;;;6140596;22;20400;-91
2022/05/17 13:17:35;;;;;;;12.33;11.03;;;;;;;;;;6205346;23;20395;-86
2022/05/17 13:20:48;;;;;;;2.80;2.70;;;;;;;;;;6244157;22;20447;-90
2022/05/17 13:23:51;;;;;;;3.00;2.90;;;;;;;;;;6198214;22;20555;-86
2022/05/17 13:27:06;;;;;;;4.60;3.57;;;;;;;;;;6324085;22;20508;-88
2022/05/17 13:30:18;;;;;;;3.17;3.17;;;;;;;;;;6356753;22;20401;-90
2022/05/17 13:33:24;;;;;;;4.40;3.30;;;;;;;;;;6358916;22;20394;-91
2022/05/17 13:39:05;;;;;;;3.97;3.80;;;;;;;;;;6200836;22;20457;-89
2022/05/17 13:42:11;;;;;;;4.17;3.30;;;;;;;;;;6192065;23;20875;-88
2022/05/17 13:45:20;;;;;;;4.07;3.47;;;;;;;;;;6197457;22;20395;-89
2022/05/17 13:48:27;;;;;;;4.53;3.60;;;;;;;;;;6192322;23;20506;-91
2022/05/17 13:51:36;;;;;;;5.13;2.97;;;;;;;;;;6196613;22;20387;-90
2022/05/17 13:54:44;;;;;;;3.73;3.43;;;;;;;;;;6194448;23;20724;-91
2022/05/17 13:57:52;;;;;;;3.77;3.40;;;;;;;;;;6192940;23;20421;-90
2022/05/17 14:01:00;;;;;;;7.47;3.83;;;;;;;;;;6193715;23;20395;-89
2022/05/17 14:04:15;;;;;;;3.30;3.00;;;;;;;;;;6198237;23;20470;-90
2022/05/17 14:06:53;;;;;;;3.97;3.67;;;;;;;;;;6197052;23;20480;-89
2022/05/17 14:13:03;;;;;;;4.90;4.50;;;;;;;;;;6197702;23;20401;-89
2022/05/17 14:19:26;;;;;;;5.30;2.87;;;;;;;;;;6195510;23;20395;-91
2022/05/17 14:22:32;;;;;;;3.70;3.50;;;;;;;;;;6197636;23;20419;-89
2022/05/17 14:25:43;;;;;;;3.60;3.30;;;;;;;;;;6194046;22;20720;-89
2022/05/17 14:28:51;;;;;;;7.67;3.10;;;;;;;;;;6193754;22;20971;-91
2022/05/17 14:32:00;;;;;;;3.37;3.27;;;;;;;;;;6197241;23;20402;-90
2022/05/17 14:35:05;;;;;;;3.10;3.00;;;;;;;;;;6193262;23;20451;-89
2022/05/17 14:38:11;;;;;;;3.07;2.97;;;;;;;;;;6194108;23;20443;-88
2022/05/17 14:41:20;;;;;;;4.23;3.20;;;;;;;;;;6196590;23;20470;-90
2022/05/17 14:44:28;;;;;;;3.13;3.00;;;;;;;;;;6189662;22;20394;-88
2022/05/17 14:47:32;;;;;;;6.07;3.27;;;;;;;;;;6190885;22;20457;-88
2022/05/17 14:50:38;;;;;;;2.83;2.70;;;;;;;;;;6197229;23;20465;-88
2022/05/17 14:53:47;;;;;;;5.13;2.53;;;;;;;;;;6298323;22;20430;-89
2022/05/17 14:56:54;;;;;;;4.07;3.77;;;;;;;;;;6343967;22;20391;-89
2022/05/17 15:00:05;;;;;;;4.13;3.80;;;;;;;;;;6350329;22;20398;-87
2022/05/17 15:03:11;;;;;;;4.27;3.13;;;;;;;;;;6346500;22;20362;-88
2022/05/17 15:06:28;;;;;;;2.83;2.63;;;;;;;;;;6345628;22;20407;-88
2022/05/17 15:09:33;;;;;;;3.20;3.10;;;;;;;;;;6347353;22;20871;-89
2022/05/17 15:12:44;;;;;;;3.57;3.30;;;;;;;;;;6349679;22;20375;-92
2022/05/17 15:15:46;;;;;;;4.93;3.63;;;;;;;;;;6350692;22;20442;-90
2022/05/17 15:18:52;;;;;;;3.40;3.20;;;;;;;;;;6358040;22;20377;-88
2022/05/17 15:21:41;;;;;;;6.23;3.63;;;;;;;;;;6358037;22;20393;-89
2022/05/17 15:24:11;;;;;;;3.33;3.17;;;;;;;;;;6350907;22;20387;-90
2022/05/17 15:26:38;;;;;;;4.93;3.40;;;;;;;;;;6350856;22;20481;-91
2022/05/17 15:29:06;;;;;;;4.80;4.40;;;;;;;;;;6356010;22;20379;-88
2022/05/17 15:31:42;;;;;;;4.10;3.63;;;;;;;;;;6353001;22;20414;-90
2022/05/17 15:34:08;;;;;;;3.70;3.60;;;;;;;;;;6322839;22;20398;-91
2022/05/17 15:36:34;;;;;;;4.50;4.00;;;;;;;;;;6315604;22;20393;-87
2022/05/17 15:39:04;;;;;;;2.70;2.60;;;;;;;;;;6319809;22;20398;-91
2022/05/17 15:41:35;;;;;;;3.13;3.03;;;;;;;;;;6321828;22;20726;-88
2022/05/17 15:44:01;;;;;;;5.63;3.30;;;;;;;;;;6319805;22;20368;-89
2022/05/17 15:54:50;;;;;;;3.87;3.57;;;;;;;;;;6350200;22;20370;-87
2022/05/17 15:57:27;;;;;;;3.13;3.00;;;;;;;;;;6310612;22;20917;-90
2022/05/17 16:00:15;;;;;;;3.30;3.10;;;;;;;;;;6347781;22;20881;-89
2022/05/17 16:03:23;;;;;;;3.23;3.13;;;;;;;;;;6342590;22;20378;-91
2022/05/17 16:06:26;;;;;;;6.50;3.97;;;;;;;;;;6339445;22;20378;-89
2022/05/17 16:09:32;;;;;;;3.20;3.10;;;;;;;;;;6340831;22;20505;-91
2022/05/17 16:12:41;;;;;;;4.57;3.20;;;;;;;;;;6345951;22;20384;-91
2022/05/17 16:15:47;;;;;;;5.43;3.57;;;;;;;;;;6344153;22;20415;-89
2022/05/17 16:18:53;;;;;;;3.77;3.30;;;;;;;;;;6342394;22;20481;-90
2022/05/17 16:22:05;;;;;;;4.83;4.13;;;;;;;;;;6345372;22;20383;-91
2022/05/17 16:25:07;;;;;;;3.97;3.77;;;;;;;;;;6343647;22;20489;-88
2022/05/17 16:28:12;;;;;;;4.17;3.80;;;;;;;;;;6344357;22;20460;-90
2022/05/17 16:31:17;;;;;;;4.90;3.63;;;;;;;;;;6359815;22;20462;-88
2022/05/17 16:40:53;;;;;;;3.30;3.10;;;;;;;;;;6194999;22;20434;-91
2022/05/17 16:44:03;;;;;;;5.90;3.90;;;;;;;;;;6191727;23;20400;-91
2022/05/17 16:47:12;;;;;;;4.27;3.80;;;;;;;;;;6194867;23;20243;-90
2022/05/17 16:50:15;;;;;;;3.70;3.70;;;;;;;;;;6190319;23;20383;-94
2022/05/17 16:53:21;;;;;;;5.07;4.67;;;;;;;;;;6194030;23;20390;-92
2022/05/17 16:56:34;;;;;;;3.47;3.27;;;;;;;;;;6199597;23;20380;-91
2022/05/17 16:59:45;;;;;;;3.70;3.50;;;;;;;;;;6196419;22;20424;-89
2022/05/17 17:02:52;;;;;;;3.27;3.07;;;;;;;;;;6113902;22;20430;-90
2022/05/17 17:05:57;;;;;;;3.93;3.73;;;;;;;;;;6358337;22;20386;-89
2022/05/17 17:09:03;;;;;;;4.23;3.93;;;;;;;;;;6361363;22;20409;-89
2022/05/17 17:12:09;;;;;;;4.00;3.70;;;;;;;;;;6355351;22;20406;-88
2022/05/17 17:15:15;;;;;;;4.30;4.10;;;;;;;;;;6355822;22;20379;-87
2022/05/17 17:18:23;;;;;;;5.17;4.10;;;;;;;;;;6357246;22;20433;-91
2022/05/17 17:21:28;;;;;;;4.37;3.57;;;;;;;;;;6360403;22;20370;-91
2022/05/17 17:24:32;;;;;;;4.87;4.10;;;;;;;;;;6359578;22;20431;-89
2022/05/17 17:27:53;;;;;;;7.30;4.50;;;;;;;;;;6360616;22;20415;-88
2022/05/17 17:30:59;;;;;;;3.73;3.53;;;;;;;;;;6361078;22;20386;-86
2022/05/17 17:37:26;;;;;;;5.07;4.77;;;;;;;;;;6355919;22;20450;-87
2022/05/17 17:40:45;;;;;;;;;;;;;;;;;;;;;
2022/05/17 17:43:44;;;;;;;5.87;4.87;;;;;;;;;;6212715;23;20386;-87
2022/05/17 17:46:54;;;;;;;3.77;3.67;;;;;;;;;;6346581;22;20512;-89
2022/05/17 17:49:59;;;;;;;8.17;3.70;;;;;;;;;;6348308;22;20385;-88
2022/05/17 17:53:05;;;;;;;5.27;4.20;;;;;;;;;;6345202;22;20409;-87
2022/05/17 17:56:12;;;;;;;5.33;4.83;;;;;;;;;;6346279;22;20424;-88
2022/05/17 17:59:33;;;;;;;5.37;3.67;;;;;;;;;;6341429;22;20391;-86
2022/05/17 18:02:44;;;;;;;10.60;5.47;;;;;;;;;;6343049;22;20793;-88
2022/05/17 18:05:50;;;;;;;4.23;3.93;;;;;;;;;;6345841;22;20472;-88
2022/05/17 18:08:56;;;;;;;4.33;4.03;;;;;;;;;;6347841;22;20406;-89
2022/05/17 18:12:13;;;;;;;;;;;;;;;;;;;;;
2022/05/17 18:30:44;;;;;;;5.73;5.00;;;;;;;;;;6237696;22;20424;-89
2022/05/17 18:37:10;;;;;;;6.80;4.27;;;;;;;;;;6276423;22;20420;-89
2022/05/17 18:40:13;;;;;;;6.67;4.50;;;;;;;;;;6307409;22;20380;-88
2022/05/17 18:43:19;;;;;;;4.30;4.10;;;;;;;;;;6297387;22;20458;-89
2022/05/17 18:46:29;;;;;;;4.17;3.87;;;;;;;;;;6298032;22;20376;-89
2022/05/17 18:49:34;;;;;;;4.30;3.70;;;;;;;;;;6299294;22;20376;-90
2022/05/17 18:52:25;;;;;;;5.53;5.03;;;;;;;;;;6292237;22;20376;-90
2022/05/17 18:55:29;;;;;;;6.30;4.33;;;;;;;;;;6289605;22;20458;-89
2022/05/17 18:58:37;;;;;;;3.83;3.53;;;;;;;;;;6284802;22;20368;-89
2022/05/17 19:04:26;;;;;;;6.40;4.40;;;;;;;;;;6259252;22;20464;-89
2022/05/17 19:13:33;;;;;;;4.67;4.37;;;;;;;;;;6207782;23;20404;-91
2022/05/17 19:16:55;;;;;;;5.30;4.93;;;;;;;;;;6261723;23;20773;-88
2022/05/17 19:19:58;;;;;;;4.87;4.57;;;;;;;;;;6157820;23;20450;-90
2022/05/17 19:23:00;;;;;;;5.80;4.70;;;;;;;;;;6251260;23;20377;-90
2022/05/17 19:25:47;;;;;;;4.87;4.60;;;;;;;;;;6222142;23;20393;-91
2022/05/17 19:28:52;;;;;;;5.53;4.33;;;;;;;;;;6243586;23;20621;-91
2022/05/17 19:32:07;;;;;;;5.40;5.10;;;;;;;;;;6248994;23;20527;-91
2022/05/17 19:35:06;;;;;;;5.43;5.07;;;;;;;;;;6241484;23;20432;-90
2022/05/17 19:40:55;;;;;;;7.07;6.77;;;;;;;;;;6247425;23;20445;-87
2022/05/17 19:43:22;;;;;;;5.00;4.80;;;;;;;;;;6228230;23;20394;-90
2022/05/17 19:45:50;;;;;;;5.50;5.07;;;;;;;;;;6220142;23;20400;-90
2022/05/17 19:48:17;;;;;;;5.53;5.03;;;;;;;;;;6219999;23;20394;-91
2022/05/17 19:50:45;;;;;;;5.50;5.00;;;;;;;;;;6223481;23;20394;-91
2022/05/17 19:53:13;;;;;;;5.30;4.80;;;;;;;;;;6230152;23;20401;-92
2022/05/17 19:55:42;;;;;;;5.57;5.27;;;;;;;;;;6255833;23;20425;-93
2022/05/17 19:58:28;;;;;;;6.73;6.13;;;;;;;;;;6237774;23;20394;-90
2022/05/17 20:01:34;;;;;;;6.57;5.60;;;;;;;;;;6258400;23;20457;-91
2022/05/17 20:04:39;;;;;;;8.40;5.33;;;;;;;;;;6251109;23;20382;-90
2022/05/17 20:07:45;;;;;;;7.90;5.80;;;;;;;;;;6257441;22;20458;-92
2022/05/17 20:24:41;;;;;;;7.27;5.47;;;;;;;;;;6216529;23;20393;-89
2022/05/17 20:27:17;;;;;;;5.97;5.60;;;;;;;;;;6183916;23;20558;-89
2022/05/17 20:30:34;;;;;;;5.37;4.97;;;;;;;;;;6188457;23;20386;-90
2022/05/17 20:36:19;;;;;;;5.83;5.43;;;;;;;;;;6195548;23;20806;-88
2022/05/17 20:38:54;;;;;;;6.87;6.27;;;;;;;;;;6217486;23;20860;-89
2022/05/17 20:44:26;;;;;;;12.23;5.80;;;;;;;;;;6209735;23;20436;-89
2022/05/17 20:49:40;;;;;;;6.67;6.07;;;;;;;;;;6210329;23;20898;-89
2022/05/17 20:52:06;;;;;;;6.07;5.67;;;;;;;;;;6184553;23;20922;-89
2022/05/17 20:54:32;;;;;;;17.27;9.30;;;;;;;;;;6186613;23;20418;-89
2022/05/17 20:57:07;;;;;;;6.93;5.47;;;;;;;;;;6183713;23;20409;-87
2022/05/17 20:59:53;;;;;;;6.70;5.90;;;;;;;;;;6183804;23;20390;-89
2022/05/17 21:03:02;;;;;;;6.70;6.10;;;;;;;;;;6209596;23;20382;-89
2022/05/17 21:06:10;;;;;;;5.97;5.57;;;;;;;;;;6206256;23;20473;-88